sensor_id;sensor_type;location;lat;lon;timestamp;pressure;altitude;pressure_sealevel;temperature;humidity
30021;BME280;16861;52.294;7.760;2023-08-21T00:00:11;100515.63;;;23.36;46.54
30021;BME280;16861;52.294;7.760;2023-08-21T00:02:39;100525.97;;;23.31;46.33
30021;BME280;16861;52.294;7.760;2023-08-21T00:05:07;100524.72;;;23.25;46.98
30021;BME280;16861;52.294;7.760;2023-08-21T00:07:33;100526.03;;;23.21;46.66
30021;BME280;16861;52.294;7.760;2023-08-21T00:10:00;100525.66;;;23.16;47.18
30021;BME280;16861;52.294;7.760;2023-08-21T00:12:26;100520.03;;;23.09;47.22
30021;BME280;16861;52.294;7.760;2023-08-21T00:14:53;100522.63;;;23.01;47.46
30021;BME280;16861;52.294;7.760;2023-08-21T00:17:19;100518.41;;;22.98;47.54
30021;BME280;16861;52.294;7.760;2023-08-21T00:19:46;100523.09;;;22.96;47.33
30021;BME280;16861;52.294;7.760;2023-08-21T00:22:12;100529.44;;;22.95;47.50
30021;BME280;16861;52.294;7.760;2023-08-21T00:24:39;100535.53;;;22.97;47.48
30021;BME280;16861;52.294;7.760;2023-08-21T00:27:05;100526.06;;;22.93;47.36
30021;BME280;16861;52.294;7.760;2023-08-21T00:29:32;100530.06;;;22.89;47.58
30021;BME280;16861;52.294;7.760;2023-08-21T00:31:58;100525.28;;;22.83;47.43
30021;BME280;16861;52.294;7.760;2023-08-21T00:34:25;100520.78;;;22.73;48.02
30021;BME280;16861;52.294;7.760;2023-08-21T00:36:51;100524.09;;;22.67;48.39
30021;BME280;16861;52.294;7.760;2023-08-21T00:39:18;100519.00;;;22.64;49.22
30021;BME280;16861;52.294;7.760;2023-08-21T00:41:45;100524.50;;;22.62;48.86
30021;BME280;16861;52.294;7.760;2023-08-21T00:44:11;100517.31;;;22.63;49.31
30021;BME280;16861;52.294;7.760;2023-08-21T00:46:38;100527.19;;;22.62;48.91
30021;BME280;16861;52.294;7.760;2023-08-21T00:49:04;100528.19;;;22.61;48.46
30021;BME280;16861;52.294;7.760;2023-08-21T00:51:31;100525.97;;;22.57;48.99
30021;BME280;16861;52.294;7.760;2023-08-21T00:53:58;100523.69;;;22.52;49.36
30021;BME280;16861;52.294;7.760;2023-08-21T00:56:25;100524.81;;;22.49;49.33
30021;BME280;16861;52.294;7.760;2023-08-21T00:58:51;100526.50;;;22.50;49.46
30021;BME280;16861;52.294;7.760;2023-08-21T01:01:24;100531.88;;;22.50;50.27
30021;BME280;16861;52.294;7.760;2023-08-21T01:03:52;100528.91;;;22.54;49.39
30021;BME280;16861;52.294;7.760;2023-08-21T01:06:19;100530.63;;;22.55;49.48
30021;BME280;16861;52.294;7.760;2023-08-21T01:09:02;100528.50;;;22.48;50.04
30021;BME280;16861;52.294;7.760;2023-08-21T01:14:20;100527.50;;;22.49;50.19
30021;BME280;16861;52.294;7.760;2023-08-21T01:16:53;100529.91;;;22.52;49.48
30021;BME280;16861;52.294;7.760;2023-08-21T01:19:31;100528.19;;;22.51;49.66
30021;BME280;16861;52.294;7.760;2023-08-21T01:21:59;100531.59;;;22.54;49.68
30021;BME280;16861;52.294;7.760;2023-08-21T01:24:26;100526.22;;;22.54;49.54
30021;BME280;16861;52.294;7.760;2023-08-21T01:26:53;100530.72;;;22.53;49.72
30021;BME280;16861;52.294;7.760;2023-08-21T01:29:20;100529.91;;;22.52;49.52
30021;BME280;16861;52.294;7.760;2023-08-21T01:31:51;100533.03;;;22.48;49.63
30021;BME280;16861;52.294;7.760;2023-08-21T01:34:21;100526.97;;;22.46;49.93
30021;BME280;16861;52.294;7.760;2023-08-21T01:36:49;100530.75;;;22.43;50.28
30021;BME280;16861;52.294;7.760;2023-08-21T01:39:16;100533.75;;;22.40;50.53
30021;BME280;16861;52.294;7.760;2023-08-21T01:41:42;100531.50;;;22.35;50.29
30021;BME280;16861;52.294;7.760;2023-08-21T01:44:09;100533.78;;;22.30;50.53
30021;BME280;16861;52.294;7.760;2023-08-21T01:46:38;100538.59;;;22.26;50.86
30021;BME280;16861;52.294;7.760;2023-08-21T01:49:04;100538.88;;;22.23;50.96
30021;BME280;16861;52.294;7.760;2023-08-21T01:51:31;100536.19;;;22.23;50.91
30021;BME280;16861;52.294;7.760;2023-08-21T01:53:58;100527.16;;;22.24;50.99
30021;BME280;16861;52.294;7.760;2023-08-21T01:56:24;100532.53;;;22.24;51.22
30021;BME280;16861;52.294;7.760;2023-08-21T01:58:51;100522.78;;;22.23;51.14
30021;BME280;16861;52.294;7.760;2023-08-21T02:01:17;100524.63;;;22.23;51.27
30021;BME280;16861;52.294;7.760;2023-08-21T02:03:45;100529.16;;;22.22;51.35
30021;BME280;16861;52.294;7.760;2023-08-21T02:06:12;100526.75;;;22.19;51.01
30021;BME280;16861;52.294;7.760;2023-08-21T02:08:39;100521.66;;;22.16;51.25
30021;BME280;16861;52.294;7.760;2023-08-21T02:11:06;100521.97;;;22.13;51.50
30021;BME280;16861;52.294;7.760;2023-08-21T02:13:33;100513.34;;;22.09;51.70
30021;BME280;16861;52.294;7.760;2023-08-21T02:16:02;100509.53;;;22.12;51.52
30021;BME280;16861;52.294;7.760;2023-08-21T02:18:28;100519.84;;;22.17;51.54
30021;BME280;16861;52.294;7.760;2023-08-21T02:20:55;100514.19;;;22.20;51.82
30021;BME280;16861;52.294;7.760;2023-08-21T02:23:22;100514.75;;;22.23;50.91
30021;BME280;16861;52.294;7.760;2023-08-21T02:25:51;100522.94;;;22.22;50.23
30021;BME280;16861;52.294;7.760;2023-08-21T02:28:17;100525.50;;;22.13;50.36
30021;BME280;16861;52.294;7.760;2023-08-21T02:30:45;100519.31;;;22.03;50.31
30021;BME280;16861;52.294;7.760;2023-08-21T02:33:12;100515.66;;;21.94;50.51
30021;BME280;16861;52.294;7.760;2023-08-21T02:35:39;100521.88;;;21.85;50.92
30021;BME280;16861;52.294;7.760;2023-08-21T02:38:05;100524.13;;;21.80;51.23
30021;BME280;16861;52.294;7.760;2023-08-21T02:40:32;100524.41;;;21.77;51.18
30021;BME280;16861;52.294;7.760;2023-08-21T02:42:59;100528.22;;;21.74;51.86
30021;BME280;16861;52.294;7.760;2023-08-21T02:45:25;100524.72;;;21.73;52.55
30021;BME280;16861;52.294;7.760;2023-08-21T02:47:52;100526.53;;;21.73;52.48
30021;BME280;16861;52.294;7.760;2023-08-21T02:50:19;100528.22;;;21.74;52.75
30021;BME280;16861;52.294;7.760;2023-08-21T02:52:46;100525.53;;;21.74;53.15
30021;BME280;16861;52.294;7.760;2023-08-21T02:55:12;100523.41;;;21.78;53.19
30021;BME280;16861;52.294;7.760;2023-08-21T02:57:40;100532.03;;;21.81;53.96
30021;BME280;16861;52.294;7.760;2023-08-21T03:00:07;100527.22;;;21.85;53.69
30021;BME280;16861;52.294;7.760;2023-08-21T03:02:38;100525.41;;;21.85;53.74
30021;BME280;16861;52.294;7.760;2023-08-21T03:05:10;100524.41;;;21.86;53.40
30021;BME280;16861;52.294;7.760;2023-08-21T03:07:37;100517.22;;;21.87;53.19
30021;BME280;16861;52.294;7.760;2023-08-21T03:10:05;100517.06;;;21.89;53.34
30021;BME280;16861;52.294;7.760;2023-08-21T03:12:32;100516.22;;;21.88;52.78
30021;BME280;16861;52.294;7.760;2023-08-21T03:14:58;100520.72;;;21.87;52.93
30021;BME280;16861;52.294;7.760;2023-08-21T03:17:25;100518.19;;;21.86;53.07
30021;BME280;16861;52.294;7.760;2023-08-21T03:19:51;100525.41;;;21.85;52.57
30021;BME280;16861;52.294;7.760;2023-08-21T03:22:18;100528.22;;;21.84;52.54
30021;BME280;16861;52.294;7.760;2023-08-21T03:24:45;100523.00;;;21.82;52.74
30021;BME280;16861;52.294;7.760;2023-08-21T03:27:11;100525.00;;;21.80;52.54
30021;BME280;16861;52.294;7.760;2023-08-21T03:29:38;100526.09;;;21.78;52.89
30021;BME280;16861;52.294;7.760;2023-08-21T03:32:04;100530.63;;;21.77;53.01
30021;BME280;16861;52.294;7.760;2023-08-21T03:34:31;100530.63;;;21.77;53.36
30021;BME280;16861;52.294;7.760;2023-08-21T03:36:57;100526.09;;;21.78;53.26
30021;BME280;16861;52.294;7.760;2023-08-21T03:39:24;100522.44;;;21.79;53.27
30021;BME280;16861;52.294;7.760;2023-08-21T03:41:50;100526.69;;;21.81;53.44
30021;BME280;16861;52.294;7.760;2023-08-21T03:44:17;100528.09;;;21.85;53.91
30021;BME280;16861;52.294;7.760;2023-08-21T03:46:44;100525.97;;;21.89;54.13
30021;BME280;16861;52.294;7.760;2023-08-21T03:49:10;100529.19;;;21.93;54.14
30021;BME280;16861;52.294;7.760;2023-08-21T03:51:37;100526.22;;;21.96;54.09
30021;BME280;16861;52.294;7.760;2023-08-21T03:54:05;100521.59;;;21.98;54.17
30021;BME280;16861;52.294;7.760;2023-08-21T03:56:31;100524.09;;;21.99;53.68
30021;BME280;16861;52.294;7.760;2023-08-21T03:58:58;100518.59;;;22.01;53.14
30021;BME280;16861;52.294;7.760;2023-08-21T04:01:25;100523.00;;;22.02;53.36
30021;BME280;16861;52.294;7.760;2023-08-21T04:03:51;100516.63;;;22.03;53.30
30021;BME280;16861;52.294;7.760;2023-08-21T04:06:18;100514.78;;;22.04;53.48
30021;BME280;16861;52.294;7.760;2023-08-21T04:08:44;100516.50;;;22.05;53.21
30021;BME280;16861;52.294;7.760;2023-08-21T04:11:11;100517.31;;;22.05;52.93
30021;BME280;16861;52.294;7.760;2023-08-21T04:13:37;100511.97;;;22.05;53.04
30021;BME280;16861;52.294;7.760;2023-08-21T04:16:04;100510.81;;;22.08;52.81
30021;BME280;16861;52.294;7.760;2023-08-21T04:18:31;100517.72;;;22.10;53.34
30021;BME280;16861;52.294;7.760;2023-08-21T04:21:07;100530.72;;;22.15;52.72
30021;BME280;16861;52.294;7.760;2023-08-21T04:23:34;100526.06;;;22.17;52.63
30021;BME280;16861;52.294;7.760;2023-08-21T04:26:02;100534.78;;;22.19;53.15
30021;BME280;16861;52.294;7.760;2023-08-21T04:28:32;100535.06;;;22.16;53.06
30021;BME280;16861;52.294;7.760;2023-08-21T04:30:59;100540.31;;;22.18;52.82
30021;BME280;16861;52.294;7.760;2023-08-21T04:33:28;100536.06;;;22.15;53.15
30021;BME280;16861;52.294;7.760;2023-08-21T04:35:55;100533.41;;;22.15;53.24
30021;BME280;16861;52.294;7.760;2023-08-21T04:38:21;100535.06;;;22.16;53.12
30021;BME280;16861;52.294;7.760;2023-08-21T04:40:48;100534.38;;;22.14;53.49
30021;BME280;16861;52.294;7.760;2023-08-21T04:43:15;100536.22;;;22.13;53.33
30021;BME280;16861;52.294;7.760;2023-08-21T04:45:51;100534.25;;;22.06;53.95
30021;BME280;16861;52.294;7.760;2023-08-21T04:48:21;100529.59;;;22.08;53.75
30021;BME280;16861;52.294;7.760;2023-08-21T04:50:48;100528.75;;;22.07;54.29
30021;BME280;16861;52.294;7.760;2023-08-21T04:53:14;100529.31;;;22.11;54.30
30021;BME280;16861;52.294;7.760;2023-08-21T04:55:41;100523.66;;;22.14;53.99
30021;BME280;16861;52.294;7.760;2023-08-21T04:58:08;100530.28;;;22.20;53.86
30021;BME280;16861;52.294;7.760;2023-08-21T05:00:35;100530.56;;;22.26;53.84
30021;BME280;16861;52.294;7.760;2023-08-21T05:03:02;100537.16;;;22.32;53.69
30021;BME280;16861;52.294;7.760;2023-08-21T05:05:29;100528.81;;;22.35;53.90
30021;BME280;16861;52.294;7.760;2023-08-21T05:07:55;100526.72;;;22.39;53.98
30021;BME280;16861;52.294;7.760;2023-08-21T05:10:22;100533.44;;;22.43;53.75
30021;BME280;16861;52.294;7.760;2023-08-21T05:12:48;100535.84;;;22.46;53.78
30021;BME280;16861;52.294;7.760;2023-08-21T05:15:15;100541.78;;;22.50;53.42
30021;BME280;16861;52.294;7.760;2023-08-21T05:17:42;100547.69;;;22.54;53.27
30021;BME280;16861;52.294;7.760;2023-08-21T05:20:10;100550.25;;;22.55;53.26
30021;BME280;16861;52.294;7.760;2023-08-21T05:22:40;100541.06;;;22.58;53.08
30021;BME280;16861;52.294;7.760;2023-08-21T05:25:07;100547.25;;;22.58;52.80
30021;BME280;16861;52.294;7.760;2023-08-21T05:27:34;100551.66;;;22.59;53.14
30021;BME280;16861;52.294;7.760;2023-08-21T05:30:00;100551.66;;;22.59;53.05
30021;BME280;16861;52.294;7.760;2023-08-21T05:32:27;100558.72;;;22.60;52.93
30021;BME280;16861;52.294;7.760;2023-08-21T05:34:54;100555.03;;;22.61;52.76
30021;BME280;16861;52.294;7.760;2023-08-21T05:37:20;100560.41;;;22.61;52.88
30021;BME280;16861;52.294;7.760;2023-08-21T05:39:47;100559.56;;;22.61;53.01
30021;BME280;16861;52.294;7.760;2023-08-21T05:42:15;100563.22;;;22.60;52.71
30021;BME280;16861;52.294;7.760;2023-08-21T05:44:41;100568.59;;;22.60;52.87
30021;BME280;16861;52.294;7.760;2023-08-21T05:47:08;100565.22;;;22.58;52.58
30021;BME280;16861;52.294;7.760;2023-08-21T05:49:34;100565.38;;;22.56;52.53
30021;BME280;16861;52.294;7.760;2023-08-21T05:52:02;100568.19;;;22.55;52.79
30021;BME280;16861;52.294;7.760;2023-08-21T05:54:28;100569.03;;;22.55;53.15
30021;BME280;16861;52.294;7.760;2023-08-21T05:56:57;100569.97;;;22.54;53.04
30021;BME280;16861;52.294;7.760;2023-08-21T05:59:29;100572.84;;;22.52;52.93
30021;BME280;16861;52.294;7.760;2023-08-21T06:01:56;100570.88;;;22.55;53.01
30021;BME280;16861;52.294;7.760;2023-08-21T06:04:22;100573.28;;;22.58;53.35
30021;BME280;16861;52.294;7.760;2023-08-21T06:06:49;100579.31;;;22.60;53.53
30021;BME280;16861;52.294;7.760;2023-08-21T06:09:15;100580.84;;;22.62;53.27
30021;BME280;16861;52.294;7.760;2023-08-21T06:11:43;100579.72;;;22.65;52.76
30021;BME280;16861;52.294;7.760;2023-08-21T06:14:10;100574.06;;;22.68;52.83
30021;BME280;16861;52.294;7.760;2023-08-21T06:16:37;100581.84;;;22.71;53.50
30021;BME280;16861;52.294;7.760;2023-08-21T06:19:03;100577.88;;;22.75;53.73
30021;BME280;16861;52.294;7.760;2023-08-21T06:21:30;100580.94;;;22.81;53.69
30021;BME280;16861;52.294;7.760;2023-08-21T06:23:56;100587.56;;;22.86;53.80
30021;BME280;16861;52.294;7.760;2023-08-21T06:26:23;100588.81;;;22.92;53.80
30021;BME280;16861;52.294;7.760;2023-08-21T06:28:51;100582.31;;;22.95;53.34
30021;BME280;16861;52.294;7.760;2023-08-21T06:31:20;100584.53;;;22.99;54.01
30021;BME280;16861;52.294;7.760;2023-08-21T06:33:46;100578.88;;;23.02;53.83
30021;BME280;16861;52.294;7.760;2023-08-21T06:36:13;100587.16;;;23.09;54.06
30021;BME280;16861;52.294;7.760;2023-08-21T06:38:40;100592.09;;;23.14;53.94
30021;BME280;16861;52.294;7.760;2023-08-21T06:41:06;100583.72;;;23.17;53.67
30021;BME280;16861;52.294;7.760;2023-08-21T06:43:38;100589.66;;;23.21;53.88
30021;BME280;16861;52.294;7.760;2023-08-21T06:46:08;100587.50;;;23.24;53.44
30021;BME280;16861;52.294;7.760;2023-08-21T06:48:38;100584.53;;;23.27;53.91
30021;BME280;16861;52.294;7.760;2023-08-21T06:51:05;100587.59;;;23.33;53.63
30021;BME280;16861;52.294;7.760;2023-08-21T06:53:32;100590.84;;;23.36;53.40
30021;BME280;16861;52.294;7.760;2023-08-21T06:55:58;100590.41;;;23.41;53.54
30021;BME280;16861;52.294;7.760;2023-08-21T06:58:25;100593.50;;;23.46;53.64
30021;BME280;16861;52.294;7.760;2023-08-21T07:00:53;100601.94;;;23.51;53.28
30021;BME280;16861;52.294;7.760;2023-08-21T07:03:20;100592.41;;;23.57;53.10
30021;BME280;16861;52.294;7.760;2023-08-21T07:05:53;100595.63;;;23.61;53.40
30021;BME280;16861;52.294;7.760;2023-08-21T07:08:20;100601.09;;;23.69;53.38
30021;BME280;16861;52.294;7.760;2023-08-21T07:10:47;100598.78;;;23.74;53.17
30021;BME280;16861;52.294;7.760;2023-08-21T07:13:13;100593.81;;;23.79;53.57
30021;BME280;16861;52.294;7.760;2023-08-21T07:15:40;100596.75;;;23.86;53.94
30021;BME280;16861;52.294;7.760;2023-08-21T07:18:06;100598.94;;;23.91;52.80
30021;BME280;16861;52.294;7.760;2023-08-21T07:20:34;100591.97;;;23.98;53.20
30021;BME280;16861;52.294;7.760;2023-08-21T07:23:00;100597.72;;;24.03;53.52
30021;BME280;16861;52.294;7.760;2023-08-21T07:25:27;100602.47;;;24.10;53.21
30021;BME280;16861;52.294;7.760;2023-08-21T07:27:55;100607.25;;;24.16;53.08
30021;BME280;16861;52.294;7.760;2023-08-21T07:30:22;100608.63;;;24.20;52.91
30021;BME280;16861;52.294;7.760;2023-08-21T07:32:49;100602.94;;;24.23;52.95
30021;BME280;16861;52.294;7.760;2023-08-21T07:35:15;100605.31;;;24.26;53.13
30021;BME280;16861;52.294;7.760;2023-08-21T07:37:45;100608.53;;;24.30;52.84
30021;BME280;16861;52.294;7.760;2023-08-21T07:40:12;100607.06;;;24.36;52.66
30021;BME280;16861;52.294;7.760;2023-08-21T07:42:38;100615.38;;;24.42;53.10
30021;BME280;16861;52.294;7.760;2023-08-21T07:45:06;100607.66;;;24.48;52.46
30021;BME280;16861;52.294;7.760;2023-08-21T07:47:32;100606.19;;;24.53;52.80
30021;BME280;16861;52.294;7.760;2023-08-21T07:50:02;100608.22;;;24.59;52.96
30021;BME280;16861;52.294;7.760;2023-08-21T07:52:29;100612.97;;;24.66;52.39
30021;BME280;16861;52.294;7.760;2023-08-21T07:54:55;100614.16;;;24.71;52.09
30021;BME280;16861;52.294;7.760;2023-08-21T07:57:22;100614.53;;;24.77;51.36
30021;BME280;16861;52.294;7.760;2023-08-21T07:59:48;100605.31;;;24.79;51.61
30021;BME280;16861;52.294;7.760;2023-08-21T08:02:15;100597.91;;;24.81;51.80
30021;BME280;16861;52.294;7.760;2023-08-21T08:04:42;100597.63;;;24.84;51.64
30021;BME280;16861;52.294;7.760;2023-08-21T08:07:09;100601.00;;;24.87;51.34
30021;BME280;16861;52.294;7.760;2023-08-21T08:09:36;100593.63;;;24.89;51.40
30021;BME280;16861;52.294;7.760;2023-08-21T08:12:03;100599.66;;;24.91;51.49
30021;BME280;16861;52.294;7.760;2023-08-21T08:14:33;100604.72;;;24.94;52.04
30021;BME280;16861;52.294;7.760;2023-08-21T08:16:59;100599.69;;;24.99;52.33
30021;BME280;16861;52.294;7.760;2023-08-21T08:19:26;100598.38;;;25.03;52.21
30021;BME280;16861;52.294;7.760;2023-08-21T08:21:52;100602.44;;;25.07;51.38
30021;BME280;16861;52.294;7.760;2023-08-21T08:24:19;100600.41;;;25.09;51.31
30021;BME280;16861;52.294;7.760;2023-08-21T08:26:45;100604.81;;;25.10;50.75
30021;BME280;16861;52.294;7.760;2023-08-21T08:29:12;100607.66;;;25.09;51.17
30021;BME280;16861;52.294;7.760;2023-08-21T08:31:39;100608.47;;;25.09;50.61
30021;BME280;16861;52.294;7.760;2023-08-21T08:34:05;100607.81;;;25.07;50.63
30021;BME280;16861;52.294;7.760;2023-08-21T08:36:32;100603.28;;;25.08;51.24
30021;BME280;16861;52.294;7.760;2023-08-21T08:38:58;100601.09;;;25.11;51.80
30021;BME280;16861;52.294;7.760;2023-08-21T08:41:35;100603.13;;;25.18;51.61
30021;BME280;16861;52.294;7.760;2023-08-21T08:44:04;100597.63;;;25.28;51.25
30021;BME280;16861;52.294;7.760;2023-08-21T08:46:31;100595.09;;;25.34;50.96
30021;BME280;16861;52.294;7.760;2023-08-21T08:48:58;100598.16;;;25.40;50.71
30021;BME280;16861;52.294;7.760;2023-08-21T08:51:28;100601.88;;;25.47;49.94
30021;BME280;16861;52.294;7.760;2023-08-21T08:53:58;100603.91;;;25.53;50.17
30021;BME280;16861;52.294;7.760;2023-08-21T08:56:25;100597.91;;;25.59;50.57
30021;BME280;16861;52.294;7.760;2023-08-21T08:58:52;100604.31;;;25.67;50.47
30021;BME280;16861;52.294;7.760;2023-08-21T09:01:19;100595.53;;;25.73;49.83
30021;BME280;16861;52.294;7.760;2023-08-21T09:03:45;100597.56;;;25.79;49.91
30021;BME280;16861;52.294;7.760;2023-08-21T09:06:12;100597.94;;;25.84;49.52
30021;BME280;16861;52.294;7.760;2023-08-21T09:08:52;100602.97;;;25.87;49.36
30021;BME280;16861;52.294;7.760;2023-08-21T09:11:19;100592.34;;;25.94;49.15
30021;BME280;16861;52.294;7.760;2023-08-21T09:13:49;100595.56;;;25.98;49.30
30021;BME280;16861;52.294;7.760;2023-08-21T09:16:17;100587.81;;;26.03;48.85
30021;BME280;16861;52.294;7.760;2023-08-21T09:18:51;100593.53;;;26.08;47.78
30021;BME280;16861;52.294;7.760;2023-08-21T09:21:18;100602.97;;;26.12;47.70
30021;BME280;16861;52.294;7.760;2023-08-21T09:23:46;100602.66;;;26.15;47.79
30021;BME280;16861;52.294;7.760;2023-08-21T09:26:20;100602.97;;;26.12;47.31
30021;BME280;16861;52.294;7.760;2023-08-21T09:28:51;100607.34;;;26.13;47.23
30021;BME280;16861;52.294;7.760;2023-08-21T09:31:29;100612.41;;;26.08;47.43
30021;BME280;16861;52.294;7.760;2023-08-21T09:33:57;100616.63;;;26.11;46.89
30021;BME280;16861;52.294;7.760;2023-08-21T09:36:24;100620.66;;;26.07;47.34
30021;BME280;16861;52.294;7.760;2023-08-21T09:38:51;100606.69;;;26.03;47.20
30021;BME280;16861;52.294;7.760;2023-08-21T09:41:19;100612.25;;;26.01;47.30
30021;BME280;16861;52.294;7.760;2023-08-21T09:43:46;100599.78;;;26.00;47.71
30021;BME280;16861;52.294;7.760;2023-08-21T09:46:21;100600.97;;;25.98;46.78
30021;BME280;16861;52.294;7.760;2023-08-21T09:48:51;100601.63;;;26.00;47.25
30021;BME280;16861;52.294;7.760;2023-08-21T09:51:18;100608.38;;;26.04;47.43
30021;BME280;16861;52.294;7.760;2023-08-21T09:53:45;100602.47;;;26.09;47.23
30021;BME280;16861;52.294;7.760;2023-08-21T09:56:14;100610.56;;;26.17;48.33
30021;BME280;16861;52.294;7.760;2023-08-21T09:58:41;100614.13;;;26.26;48.08
30021;BME280;16861;52.294;7.760;2023-08-21T10:01:07;100604.00;;;26.36;48.12
30021;BME280;16861;52.294;7.760;2023-08-21T10:03:41;100606.31;;;26.48;48.29
30021;BME280;16861;52.294;7.760;2023-08-21T10:06:09;100597.88;;;26.59;48.20
30021;BME280;16861;52.294;7.760;2023-08-21T10:08:38;100596.84;;;26.69;48.18
30021;BME280;16861;52.294;7.760;2023-08-21T10:11:09;100592.91;;;26.79;46.87
30021;BME280;16861;52.294;7.760;2023-08-21T10:13:38;100592.72;;;26.89;47.65
30021;BME280;16861;52.294;7.760;2023-08-21T10:16:05;100593.84;;;27.03;47.87
30021;BME280;16861;52.294;7.760;2023-08-21T10:18:35;100586.22;;;27.15;47.09
30021;BME280;16861;52.294;7.760;2023-08-21T10:21:22;100586.19;;;27.24;47.93
30021;BME280;16861;52.294;7.760;2023-08-21T10:23:54;100583.56;;;27.39;47.76
30021;BME280;16861;52.294;7.760;2023-08-21T10:26:22;100585.66;;;27.52;47.30
30021;BME280;16861;52.294;7.760;2023-08-21T10:31:40;100589.44;;;27.74;47.38
30021;BME280;16861;52.294;7.760;2023-08-21T10:34:13;100594.31;;;27.94;47.71
30021;BME280;16861;52.294;7.760;2023-08-21T10:42:08;100589.13;;;28.31;44.54
30021;BME280;16861;52.294;7.760;2023-08-21T10:47:15;100584.84;;;28.52;45.83
30021;BME280;16861;52.294;7.760;2023-08-21T10:49:44;100586.34;;;28.69;44.83
30021;BME280;16861;52.294;7.760;2023-08-21T10:52:11;100583.34;;;28.79;45.11
30021;BME280;16861;52.294;7.760;2023-08-21T10:54:46;100585.59;;;28.91;44.51
30021;BME280;16861;52.294;7.760;2023-08-21T10:57:13;100584.53;;;29.07;43.65
30021;BME280;16861;52.294;7.760;2023-08-21T11:00:16;100583.59;;;29.15;44.58
30021;BME280;16861;52.294;7.760;2023-08-21T11:02:44;100585.25;;;29.31;43.21
30021;BME280;16861;52.294;7.760;2023-08-21T11:05:12;100581.75;;;29.37;42.32
30021;BME280;16861;52.294;7.760;2023-08-21T11:07:42;100583.25;;;29.39;42.26
30021;BME280;16861;52.294;7.760;2023-08-21T11:10:14;100583.91;;;29.42;42.28
30021;BME280;16861;52.294;7.760;2023-08-21T11:12:51;100574.66;;;29.36;42.42
30021;BME280;16861;52.294;7.760;2023-08-21T11:15:18;100569.03;;;29.37;41.32
30021;BME280;16861;52.294;7.760;2023-08-21T11:17:59;100563.56;;;29.31;42.59
30021;BME280;16861;52.294;7.760;2023-08-21T11:20:34;100565.09;;;29.40;42.92
30021;BME280;16861;52.294;7.760;2023-08-21T11:23:02;100566.81;;;29.63;44.13
30021;BME280;16861;52.294;7.760;2023-08-21T11:25:31;100565.47;;;30.02;44.99
30021;BME280;16861;52.294;7.760;2023-08-21T11:27:58;100572.53;;;30.54;44.30
30021;BME280;16861;52.294;7.760;2023-08-21T11:30:25;100573.66;;;31.08;41.92
30021;BME280;16861;52.294;7.760;2023-08-21T11:33:09;100580.06;;;31.56;40.51
30021;BME280;16861;52.294;7.760;2023-08-21T11:35:37;100580.72;;;31.99;39.70
30021;BME280;16861;52.294;7.760;2023-08-21T11:38:05;100578.19;;;32.31;41.20
30021;BME280;16861;52.294;7.760;2023-08-21T11:40:35;100581.50;;;32.67;41.12
30021;BME280;16861;52.294;7.760;2023-08-21T11:43:03;100582.84;;;32.97;38.63
30021;BME280;16861;52.294;7.760;2023-08-21T11:45:31;100582.56;;;33.19;37.44
30021;BME280;16861;52.294;7.760;2023-08-21T11:48:10;100589.00;;;33.31;37.51
30021;BME280;16861;52.294;7.760;2023-08-21T11:50:39;100584.34;;;33.32;36.84
30021;BME280;16861;52.294;7.760;2023-08-21T11:53:06;100582.13;;;33.22;36.76
30021;BME280;16861;52.294;7.760;2023-08-21T11:55:34;100584.72;;;33.03;36.40
30021;BME280;16861;52.294;7.760;2023-08-21T11:58:01;100595.47;;;32.84;36.96
30021;BME280;16861;52.294;7.760;2023-08-21T12:00:29;100590.72;;;32.66;36.48
30021;BME280;16861;52.294;7.760;2023-08-21T12:02:58;100594.75;;;32.50;37.15
30021;BME280;16861;52.294;7.760;2023-08-21T12:05:28;100588.22;;;32.37;37.30
30021;BME280;16861;52.294;7.760;2023-08-21T12:07:56;100589.47;;;32.42;37.51
30021;BME280;16861;52.294;7.760;2023-08-21T12:10:27;100577.31;;;32.58;37.32
30021;BME280;16861;52.294;7.760;2023-08-21T12:12:54;100574.50;;;32.85;38.27
30021;BME280;16861;52.294;7.760;2023-08-21T12:15:21;100573.59;;;33.05;36.97
30021;BME280;16861;52.294;7.760;2023-08-21T12:17:48;100562.41;;;33.20;37.85
30021;BME280;16861;52.294;7.760;2023-08-21T12:20:14;100569.06;;;33.31;37.64
30021;BME280;16861;52.294;7.760;2023-08-21T12:22:41;100562.28;;;33.40;37.58
30021;BME280;16861;52.294;7.760;2023-08-21T12:25:11;100564.72;;;33.55;36.64
30021;BME280;16861;52.294;7.760;2023-08-21T12:27:39;100566.25;;;33.76;37.40
30021;BME280;16861;52.294;7.760;2023-08-21T12:30:07;100555.31;;;34.02;38.35
30021;BME280;16861;52.294;7.760;2023-08-21T12:32:33;100551.66;;;34.34;37.02
30021;BME280;16861;52.294;7.760;2023-08-21T12:35:00;100550.22;;;34.68;37.04
30021;BME280;16861;52.294;7.760;2023-08-21T12:37:27;100541.56;;;35.02;36.64
30021;BME280;16861;52.294;7.760;2023-08-21T12:39:54;100548.25;;;35.37;35.27
30021;BME280;16861;52.294;7.760;2023-08-21T12:42:21;100546.44;;;35.73;34.60
30021;BME280;16861;52.294;7.760;2023-08-21T12:44:47;100548.09;;;36.10;34.18
30021;BME280;16861;52.294;7.760;2023-08-21T12:47:14;100545.69;;;36.50;34.23
30021;BME280;16861;52.294;7.760;2023-08-21T12:49:40;100548.75;;;36.77;32.93
30021;BME280;16861;52.294;7.760;2023-08-21T12:52:07;100552.28;;;36.90;31.61
30021;BME280;16861;52.294;7.760;2023-08-21T12:54:36;100545.00;;;36.84;31.10
30021;BME280;16861;52.294;7.760;2023-08-21T12:57:03;100545.19;;;36.65;30.79
30021;BME280;16861;52.294;7.760;2023-08-21T12:59:30;100546.31;;;36.40;30.96
30021;BME280;16861;52.294;7.760;2023-08-21T13:01:59;100546.34;;;36.16;31.47
30021;BME280;16861;52.294;7.760;2023-08-21T13:04:29;100540.75;;;35.99;31.33
30021;BME280;16861;52.294;7.760;2023-08-21T13:06:56;100537.97;;;35.87;31.95